createdAt,value
2023-04-01T00:00:17.029Z,98955.94
2023-04-01T00:02:44.860Z,98949.75
2023-04-01T00:05:14.451Z,98945.38
2023-04-01T00:07:42.785Z,98948.03
2023-04-01T00:10:12.381Z,98946.28
2023-04-01T00:12:40.599Z,98954.22
2023-04-01T00:15:11.027Z,98946.28
2023-04-01T00:17:39.337Z,98950.69
2023-04-01T00:20:09.102Z,98946.31
2023-04-01T00:22:38.352Z,98951.59
2023-04-01T00:25:06.993Z,98947.19
2023-04-01T00:27:34.809Z,98945.44
2023-04-01T00:30:02.448Z,98946.34
2023-04-01T00:32:31.524Z,98948.09
2023-04-01T00:35:00.430Z,98948.09
2023-04-01T00:37:28.350Z,98941.91
2023-04-01T00:39:58.021Z,98945.41
2023-04-01T00:42:26.771Z,98944.53
2023-04-01T00:44:55.804Z,98944.53
2023-04-01T00:47:24.602Z,98942.72
2023-04-01T00:49:56.642Z,98943.59
2023-04-01T00:52:27.695Z,98941.81
2023-04-01T00:55:02.373Z,98948.00
2023-04-01T00:57:34.609Z,98949.72
2023-04-01T01:00:02.497Z,98950.63
2023-04-01T01:02:30.332Z,98951.47
2023-04-01T01:04:58.033Z,98955.91
2023-04-01T01:07:35.362Z,98952.34
2023-04-01T01:10:12.098Z,98956.75
2023-04-01T01:12:46.706Z,98949.69
2023-04-01T01:15:22.208Z,98954.13
2023-04-01T01:17:57.263Z,98956.75
2023-04-01T01:20:55.838Z,98955.03
2023-04-01T01:23:48.606Z,98946.25
2023-04-01T01:26:47.633Z,98947.16
2023-04-01T01:29:47.037Z,98950.66
2023-04-01T01:32:32.259Z,98948.88
2023-04-01T01:35:16.020Z,98952.47
2023-04-01T01:37:46.951Z,98945.41
2023-04-01T01:40:17.384Z,98950.69
2023-04-01T01:42:50.398Z,98945.41
2023-04-01T01:45:23.327Z,98955.09
2023-04-01T01:47:52.449Z,98950.69
2023-04-01T01:50:24.458Z,98948.94
2023-04-01T01:52:52.272Z,98949.88
2023-04-01T01:55:31.829Z,98961.31
2023-04-01T01:58:02.672Z,98960.41
2023-04-01T02:00:31.361Z,98958.66
2023-04-01T02:03:01.163Z,98948.09
2023-04-01T02:05:32.660Z,98956.03
2023-04-01T02:08:12.766Z,98959.56
2023-04-01T02:10:47.429Z,98953.38
2023-04-01T02:13:21.924Z,98962.19
2023-04-01T02:15:52.586Z,98960.44
2023-04-01T02:18:22.059Z,98955.19
2023-04-01T02:20:52.033Z,98953.41
2023-04-01T02:23:20.429Z,98954.34
2023-04-01T02:25:49.436Z,98948.19
2023-04-01T02:28:21.566Z,98955.22
2023-04-01T02:30:51.907Z,98957.91
2023-04-01T02:33:21.812Z,98952.59
2023-04-01T02:35:51.224Z,98955.25
2023-04-01T02:38:18.989Z,98954.41
2023-04-01T02:40:49.455Z,98955.31
2023-04-01T02:43:18.416Z,98949.19
2023-04-01T02:45:46.240Z,98953.63
2023-04-01T02:48:15.077Z,98958.94
2023-04-01T02:50:42.982Z,98955.38
2023-04-01T02:53:12.386Z,98956.28
2023-04-01T02:55:40.009Z,98961.56
2023-04-01T02:58:07.658Z,98958.94
2023-04-01T03:00:35.800Z,98959.81
2023-04-01T03:03:03.806Z,98961.59
2023-04-01T03:05:31.989Z,98966.91
2023-04-01T03:07:59.948Z,98961.63
2023-04-01T03:10:28.995Z,98959.00
2023-04-01T03:12:56.621Z,98968.69
2023-04-01T03:15:24.353Z,98968.69
2023-04-01T03:17:52.413Z,98970.44
2023-04-01T03:20:20.408Z,98974.00
2023-04-01T03:22:48.213Z,98974.88
2023-04-01T03:25:16.474Z,98965.22
2023-04-01T03:27:45.671Z,98967.91
2023-04-01T03:30:13.861Z,98979.38
2023-04-01T03:32:50.092Z,98974.06
2023-04-01T03:35:17.884Z,98981.16
2023-04-01T03:37:46.916Z,98976.75
2023-04-01T03:40:14.729Z,98980.31
2023-04-01T03:42:42.433Z,98977.66
2023-04-01T03:45:12.932Z,98977.69
2023-04-01T03:47:41.072Z,98977.69
2023-04-01T03:50:09.796Z,98982.09
2023-04-01T03:52:37.559Z,98982.13
2023-04-01T03:55:05.946Z,98985.66
2023-04-01T03:57:35.666Z,98985.66
2023-04-01T04:00:16.473Z,98984.81
2023-04-01T04:02:46.829Z,98984.81
2023-04-01T04:05:20.214Z,98990.13
2023-04-01T04:07:47.878Z,98981.31
2023-04-01T04:10:15.526Z,98987.53
2023-04-01T04:12:43.324Z,98985.75
2023-04-01T04:15:12.421Z,98989.31
2023-04-01T04:17:42.342Z,98994.63
2023-04-01T04:20:11.189Z,98992.00
2023-04-01T04:22:38.887Z,99000.78
2023-04-01T04:25:09.636Z,99001.69
2023-04-01T04:27:37.926Z,98999.03
2023-04-01T04:30:11.170Z,99004.31
2023-04-01T04:32:39.246Z,98997.31
2023-04-01T04:35:09.169Z,99011.41
2023-04-01T04:37:36.874Z,99007.91
2023-04-01T04:40:05.051Z,99002.66
2023-04-01T04:42:33.279Z,99005.28
2023-04-01T04:45:10.764Z,99008.81
2023-04-01T04:47:42.461Z,99019.41
2023-04-01T04:50:12.757Z,99015.91
2023-04-01T04:52:41.847Z,99015.91
2023-04-01T04:55:10.025Z,99019.47
2023-04-01T04:57:38.393Z,99023.00
2023-04-01T05:00:07.894Z,99022.13
2023-04-01T05:02:53.622Z,99026.53
2023-04-01T05:05:22.668Z,99026.53
2023-04-01T05:07:50.357Z,99024.78
2023-04-01T05:10:18.191Z,99029.16
2023-04-01T05:12:45.936Z,99023.91
2023-04-01T05:15:18.593Z,99027.47
2023-04-01T05:17:46.367Z,99025.69
2023-04-01T05:20:14.712Z,99028.31
2023-04-01T05:22:44.225Z,99030.94
2023-04-01T05:25:11.970Z,99038.88
2023-04-01T05:27:40.433Z,99036.22
2023-04-01T05:30:09.328Z,99036.22
2023-04-01T05:32:45.809Z,99036.19
2023-04-01T05:35:13.460Z,99040.53
2023-04-01T05:37:41.249Z,99049.38
2023-04-01T05:40:11.632Z,99048.44
2023-04-01T05:42:39.850Z,99043.13
2023-04-01T05:47:45.326Z,99043.03
2023-04-01T05:50:13.957Z,99055.34
2023-04-01T05:52:41.956Z,99053.56
2023-04-01T05:55:10.818Z,99047.31
2023-04-01T05:57:39.026Z,99048.13
2023-04-01T06:00:08.399Z,99048.06
2023-04-01T06:02:40.357Z,99044.47
2023-04-01T06:05:19.058Z,99043.53
2023-04-01T06:07:47.281Z,99045.16
2023-04-01T06:10:18.745Z,99054.78
2023-04-01T06:12:55.062Z,99055.56
2023-04-01T06:15:30.991Z,99060.78
2023-04-01T06:18:16.137Z,99057.13
2023-04-01T06:20:55.728Z,99064.91
2023-04-01T06:23:38.110Z,99062.16
2023-04-01T06:26:20.708Z,99058.47
2023-04-01T06:29:06.865Z,99059.28
2023-04-01T06:31:53.921Z,99067.06
2023-04-01T06:34:37.405Z,99068.78
2023-04-01T06:37:34.341Z,99071.34
2023-04-01T06:40:26.775Z,99071.22
2023-04-01T06:43:10.997Z,99079.03
2023-04-01T06:46:04.136Z,99073.69
2023-04-01T06:49:07.334Z,99080.63
2023-04-01T06:51:54.474Z,99079.59
2023-04-01T06:54:47.641Z,99094.50
2023-04-01T06:57:42.363Z,99085.56
2023-04-01T07:00:16.515Z,99089.94
2023-04-01T07:02:55.220Z,99081.91
2023-04-01T07:05:25.365Z,99081.00
2023-04-01T07:07:58.241Z,99086.19
2023-04-01T07:10:37.025Z,99085.22
2023-04-01T07:13:29.695Z,99085.06
2023-04-01T07:16:09.534Z,99093.75
2023-04-01T07:18:46.404Z,99091.84
2023-04-01T07:21:26.631Z,99093.53
2023-04-01T07:24:01.826Z,99096.97
2023-04-01T07:26:38.521Z,99093.34
2023-04-01T07:29:18.041Z,99101.19
2023-04-01T07:32:17.095Z,99102.00
2023-04-01T07:34:57.974Z,99102.81
2023-04-01T07:37:33.320Z,99105.34
2023-04-01T07:40:16.540Z,99114.06
2023-04-01T07:43:03.214Z,99113.94
2023-04-01T07:45:36.561Z,99118.16
2023-04-01T07:48:23.941Z,99119.75
2023-04-01T07:51:01.768Z,99117.06
2023-04-01T07:53:38.438Z,99124.03
2023-04-01T07:56:12.834Z,99122.16
2023-04-01T07:58:57.809Z,99122.91
2023-04-01T08:02:01.599Z,99129.78
2023-04-01T08:04:43.846Z,99129.66
2023-04-01T08:07:17.002Z,99130.28
2023-04-01T08:10:09.553Z,99132.75
2023-04-01T08:13:08.978Z,99144.00
2023-04-01T08:16:22.398Z,99142.13
2023-04-01T08:19:02.579Z,99142.09
2023-04-01T08:21:34.652Z,99141.94
2023-04-01T08:24:13.526Z,99140.81
2023-04-01T08:26:46.335Z,99143.16
2023-04-01T08:29:21.739Z,99147.31
2023-04-01T08:31:56.552Z,99141.66
2023-04-01T08:34:28.436Z,99148.31
2023-04-01T08:37:04.542Z,99147.16
2023-04-01T08:39:36.525Z,99147.13
2023-04-01T08:42:20.904Z,99143.47
2023-04-01T08:45:20.761Z,99153.25
2023-04-01T08:48:21.508Z,99153.22
2023-04-01T08:51:12.996Z,99157.41
2023-04-01T08:54:07.705Z,99153.81
2023-04-01T08:56:42.267Z,99157.38
2023-04-01T08:59:33.127Z,99158.28
2023-04-01T09:02:29.186Z,99161.09
2023-04-01T09:05:28.299Z,99151.41
2023-04-01T09:08:06.779Z,99161.09
2023-04-01T09:10:48.262Z,99159.31
2023-04-01T09:14:12.214Z,99158.38
2023-04-01T09:17:25.778Z,99159.25
2023-04-01T09:20:08.698Z,99152.19
2023-04-01T09:23:06.997Z,99164.56
2023-04-01T09:25:56.054Z,99160.06
2023-04-01T09:28:31.168Z,99159.97
2023-04-01T09:31:34.947Z,99162.50
2023-04-01T09:34:55.236Z,99168.56
2023-04-01T09:37:36.911Z,99165.84
2023-04-01T09:40:20.542Z,99170.13
2023-04-01T09:43:23.841Z,99175.28
2023-04-01T09:46:09.224Z,99175.91
2023-04-01T09:49:02.806Z,99167.72
2023-04-01T09:51:40.822Z,99176.97
2023-04-01T09:54:25.292Z,99171.25
2023-04-01T09:57:21.029Z,99177.06
2023-04-01T10:00:17.969Z,99180.59
2023-04-01T10:03:32.398Z,99183.31
2023-04-01T10:06:34.803Z,99188.66
2023-04-01T10:09:38.146Z,99190.38
2023-04-01T10:12:41.975Z,99187.66
2023-04-01T10:15:56.749Z,99187.47
2023-04-01T10:18:58.267Z,99193.34
2023-04-01T10:22:02.432Z,99196.72
2023-04-01T10:25:06.341Z,99199.16
2023-04-01T10:27:52.120Z,99192.63
2023-04-01T10:31:14.033Z,99191.56
2023-04-01T10:34:19.766Z,99192.88
2023-04-01T10:36:55.882Z,99189.13
2023-04-01T10:40:07.761Z,99196.88
2023-04-01T10:43:32.048Z,99193.78
2023-04-01T10:46:52.332Z,99188.94
2023-04-01T10:49:43.488Z,99205.59
2023-04-01T10:52:35.255Z,99194.81
2023-04-01T10:55:39.486Z,99198.09
2023-04-01T10:58:48.694Z,99197.78
2023-04-01T11:02:14.429Z,99192.28
2023-04-01T11:05:35.500Z,99195.69
2023-04-01T11:08:41.462Z,99197.63
2023-04-01T11:11:33.908Z,99201.28
2023-04-01T11:14:35.488Z,99199.44
2023-04-01T11:17:24.629Z,99198.56
2023-04-01T11:20:24.986Z,99199.53
2023-04-01T11:23:11.635Z,99199.44
2023-04-01T11:26:02.069Z,99214.25
2023-04-01T11:29:11.737Z,99201.84
2023-04-01T11:31:56.854Z,99210.75
2023-04-01T11:34:58.858Z,99208.97
2023-04-01T11:37:39.103Z,99219.00
2023-04-01T11:40:40.814Z,99216.88
2023-04-01T11:43:45.405Z,99227.75
2023-04-01T11:46:39.909Z,99228.03
2023-04-01T11:49:26.224Z,99229.28
2023-04-01T11:52:51.122Z,99238.75
2023-04-01T11:55:30.449Z,99236.41
2023-04-01T11:58:23.983Z,99234.66
2023-04-01T12:01:06.381Z,99233.03
2023-04-01T12:04:14.987Z,99235.84
2023-04-01T12:06:51.740Z,99231.28
2023-04-01T12:09:26.527Z,99244.59
2023-04-01T12:12:13.673Z,99247.28
2023-04-01T12:14:52.824Z,99245.56
2023-04-01T12:17:31.195Z,99244.59
2023-04-01T12:20:07.021Z,99243.91
2023-04-01T12:22:48.237Z,99250.16
2023-04-01T12:25:30.776Z,99251.69
2023-04-01T12:28:17.632Z,99251.34
2023-04-01T12:31:00.438Z,99257.34
2023-04-01T12:33:45.922Z,99247.38
2023-04-01T12:36:25.796Z,99254.19
2023-04-01T12:39:13.555Z,99260.00
2023-04-01T12:41:50.856Z,99254.41
2023-04-01T12:44:31.890Z,99253.28
2023-04-01T12:47:18.166Z,99254.94
2023-04-01T12:50:06.072Z,99260.81
2023-04-01T12:52:46.446Z,99263.13
2023-04-01T12:55:38.303Z,99259.25
2023-04-01T12:58:23.849Z,99260.88
2023-04-01T13:01:05.912Z,99268.72
2023-04-01T13:03:49.317Z,99271.19
2023-04-01T13:06:46.309Z,99271.06
2023-04-01T13:09:26.942Z,99269.22
2023-04-01T13:12:22.073Z,99272.56
2023-04-01T13:15:09.272Z,99272.34
2023-04-01T13:17:45.962Z,99280.13
2023-04-01T13:20:22.727Z,99279.09
2023-04-01T13:23:03.184Z,99283.47
2023-04-01T13:25:39.838Z,99293.25
2023-04-01T13:28:14.663Z,99287.06
2023-04-01T13:30:48.629Z,99298.53
2023-04-01T13:33:23.909Z,99292.22
2023-04-01T13:36:04.688Z,99295.69
2023-04-01T13:38:59.810Z,99295.66
2023-04-01T13:41:40.532Z,99296.56
2023-04-01T13:44:15.079Z,99300.28
2023-04-01T13:47:06.607Z,99302.16
2023-04-01T13:49:48.556Z,99307.59
2023-04-01T13:52:31.846Z,99312.16
2023-04-01T13:55:16.680Z,99315.84
2023-04-01T13:57:58.735Z,99317.44
2023-04-01T14:00:37.855Z,99324.31
2023-04-01T14:03:32.350Z,99318.63
2023-04-01T14:06:20.827Z,99329.81
2023-04-01T14:09:06.217Z,99326.69
2023-04-01T14:11:39.928Z,99328.81
2023-04-01T14:14:20.373Z,99329.03
2023-04-01T14:17:12.378Z,99334.66
2023-04-01T14:20:03.015Z,99351.72
2023-04-01T14:22:40.947Z,99354.44
2023-04-01T14:25:37.269Z,99367.91
2023-04-01T14:28:17.846Z,99368.13
2023-04-01T14:31:00.713Z,99364.78
2023-04-01T14:33:41.318Z,99368.66
2023-04-01T14:36:34.044Z,99376.03
2023-04-01T14:39:28.473Z,99379.00
2023-04-01T14:42:21.525Z,99386.38
2023-04-01T14:45:07.512Z,99385.94
2023-04-01T14:47:54.995Z,99388.16
2023-04-01T14:50:25.136Z,99392.91
2023-04-01T14:53:01.079Z,99401.19
2023-04-01T14:55:36.568Z,99410.31
2023-04-01T14:58:14.014Z,99404.53
2023-04-01T15:01:00.507Z,99399.50
2023-04-01T15:03:32.007Z,99409.47
2023-04-01T15:06:23.444Z,99418.56
2023-04-01T15:08:56.387Z,99430.34
2023-04-01T15:11:34.565Z,99428.88
2023-04-01T15:14:39.509Z,99432.72
2023-04-01T15:17:22.870Z,99444.47
2023-04-01T15:20:06.629Z,99447.41
2023-04-01T15:23:00.927Z,99452.94
2023-04-01T15:25:43.728Z,99449.75
2023-04-01T15:28:22.973Z,99470.28
2023-04-01T15:30:59.715Z,99468.72
2023-04-01T15:33:58.455Z,99463.63
2023-04-01T15:36:35.466Z,99471.72
2023-04-01T15:39:13.015Z,99477.19
2023-04-01T15:41:51.281Z,99485.28
2023-04-01T15:44:46.740Z,99483.72
2023-04-01T15:47:39.213Z,99486.53
2023-04-01T15:50:40.214Z,99492.88
2023-04-01T15:53:20.779Z,99498.28
2023-04-01T15:55:53.683Z,99497.50
2023-04-01T15:58:43.502Z,99500.28
2023-04-01T16:01:24.286Z,99503.00
2023-04-01T16:03:57.850Z,99502.22
2023-04-01T16:06:52.093Z,99517.28
2023-04-01T16:09:55.215Z,99528.81
2023-04-01T16:12:39.776Z,99528.03
2023-04-01T16:15:21.183Z,99535.22
2023-04-01T16:18:07.588Z,99530.84
2023-04-01T16:20:48.659Z,99538.94
2023-04-01T16:23:24.498Z,99536.38
2023-04-01T16:26:03.615Z,99541.72
2023-04-01T16:28:35.295Z,99538.31
2023-04-01T16:31:10.292Z,99552.47
2023-04-01T16:33:46.850Z,99551.66
2023-04-01T16:36:26.615Z,99570.25
2023-04-01T16:39:04.108Z,99574.72
2023-04-01T16:41:36.966Z,99573.00
2023-04-01T16:44:19.209Z,99573.06
2023-04-01T16:46:50.999Z,99588.97
2023-04-01T16:49:34.131Z,99586.41
2023-04-01T16:52:19.087Z,99591.69
2023-04-01T16:54:53.811Z,99599.66
2023-04-01T16:57:27.095Z,99607.63
2023-04-01T17:00:05.322Z,99613.84
2023-04-01T17:02:38.530Z,99619.19
2023-04-01T17:05:09.858Z,99623.63
2023-04-01T17:07:51.054Z,99628.97
2023-04-01T17:10:32.873Z,99638.72
2023-04-01T17:13:21.228Z,99644.06
2023-04-01T17:16:00.186Z,99652.03
2023-04-01T17:18:37.125Z,99652.97
2023-04-01T17:21:11.421Z,99660.06
2023-04-01T17:23:48.992Z,99665.38
2023-04-01T17:26:31.206Z,99669.84
2023-04-01T17:29:24.842Z,99680.44
2023-04-01T17:32:05.601Z,99687.53
2023-04-01T17:34:44.143Z,99694.59
2023-04-01T17:37:31.087Z,99696.41
2023-04-01T17:40:10.856Z,99699.97
2023-04-01T17:42:44.873Z,99709.69
2023-04-01T17:45:22.506Z,99710.56
2023-04-01T17:48:00.985Z,99716.78
2023-04-01T17:50:44.276Z,99722.06
2023-04-01T17:53:29.619Z,99730.00
2023-04-01T17:56:11.263Z,99736.19
2023-04-01T17:58:48.218Z,99742.41
2023-04-01T18:01:34.031Z,99745.03
2023-04-01T18:04:31.182Z,99753.00
2023-04-01T18:07:15.775Z,99760.03
2023-04-01T18:09:54.811Z,99756.53
2023-04-01T18:12:34.553Z,99763.59
2023-04-01T18:15:15.633Z,99775.03
2023-04-01T18:17:54.828Z,99777.72
2023-04-01T18:20:34.926Z,99786.50
2023-04-01T18:23:14.301Z,99785.63
2023-04-01T18:25:47.134Z,99795.31
2023-04-01T18:28:24.214Z,99809.41
2023-04-01T18:30:55.940Z,99813.81
2023-04-01T18:33:31.248Z,99817.34
2023-04-01T18:36:10.197Z,99830.53
2023-04-01T18:38:41.486Z,99827.03
2023-04-01T18:41:16.945Z,99834.94
2023-04-01T18:43:57.319Z,99834.06
2023-04-01T18:46:32.037Z,99846.41
2023-04-01T18:49:09.654Z,99846.38
2023-04-01T18:51:44.381Z,99860.47
2023-04-01T18:54:15.604Z,99863.97
2023-04-01T18:56:45.857Z,99859.59
2023-04-01T18:59:22.150Z,99871.91
2023-04-01T19:01:59.459Z,99883.31
2023-04-01T19:04:34.986Z,99879.81
2023-04-01T19:07:19.534Z,99889.47
2023-04-01T19:09:49.549Z,99894.75
2023-04-01T19:12:36.669Z,99899.16
2023-04-01T19:15:31.493Z,99901.78
2023-04-01T19:18:13.650Z,99914.06
2023-04-01T19:20:45.446Z,99907.91
2023-04-01T19:23:32.655Z,99920.22
2023-04-01T19:26:01.847Z,99923.72
2023-04-01T19:28:47.087Z,99932.50
2023-04-01T19:31:37.403Z,99937.78
2023-04-01T19:34:20.271Z,99940.41
2023-04-01T19:36:52.851Z,99944.78
2023-04-01T19:39:35.775Z,99964.13
2023-04-01T19:42:12.860Z,99960.59
2023-04-01T19:44:51.025Z,99971.09
2023-04-01T19:47:42.808Z,99968.47
2023-04-01T19:50:27.503Z,99972.78
2023-04-01T19:52:58.564Z,99977.16
2023-04-01T19:55:39.011Z,99986.81
2023-04-01T19:58:17.296Z,99992.06
2023-04-01T20:00:49.493Z,99996.44
2023-04-01T20:03:28.282Z,100003.44
2023-04-01T20:06:06.669Z,100002.53
2023-04-01T20:08:40.404Z,100018.34
2023-04-01T20:11:19.580Z,100028.88
2023-04-01T20:14:02.121Z,100021.81
2023-04-01T20:16:49.988Z,100024.44
2023-04-01T20:19:28.695Z,100033.22
2023-04-01T20:22:00.402Z,100042.84
2023-04-01T20:24:33.581Z,100046.34
2023-04-01T20:27:09.507Z,100059.47
2023-04-01T20:29:49.840Z,100073.53
2023-04-01T20:32:32.717Z,100072.63
2023-04-01T20:35:35.517Z,100077.84
2023-04-01T20:38:25.407Z,100087.50
2023-04-01T20:41:01.622Z,100085.72
2023-04-01T20:43:44.941Z,100087.41
2023-04-01T20:46:22.091Z,100089.19
2023-04-01T20:49:19.546Z,100104.09
2023-04-01T20:51:56.299Z,100098.78
2023-04-01T20:54:42.441Z,100104.03
2023-04-01T20:57:14.827Z,100104.88
2023-04-01T21:00:18.115Z,100108.38
2023-04-01T21:02:58.335Z,100118.00
2023-04-01T21:05:47.178Z,100117.97
2023-04-01T21:08:21.918Z,100122.31
2023-04-01T21:10:58.887Z,100129.31
2023-04-01T21:13:39.074Z,100133.69
2023-04-01T21:16:24.894Z,100138.91
2023-04-01T21:19:12.204Z,100146.75
2023-04-01T21:21:58.942Z,100156.41
2023-04-01T21:24:49.044Z,100150.22
2023-04-01T21:27:28.541Z,100153.66
2023-04-01T21:30:06.826Z,100161.50
2023-04-01T21:32:54.476Z,100168.50
2023-04-01T21:35:33.378Z,100172.81
2023-04-01T21:38:14.789Z,100180.69
2023-04-01T21:41:10.441Z,100182.44
2023-04-01T21:44:02.126Z,100190.31
2023-04-01T21:47:12.199Z,100192.91
2023-04-01T21:50:05.520Z,100195.53
2023-04-01T21:53:03.219Z,100212.16
2023-04-01T21:56:10.909Z,100217.31
2023-04-01T21:59:07.275Z,100210.25
2023-04-01T22:02:16.665Z,100225.13
2023-04-01T22:04:55.323Z,100225.94
2023-04-01T22:07:27.487Z,100231.16
2023-04-01T22:10:04.721Z,100239.03
2023-04-01T22:12:38.826Z,100244.25
2023-04-01T22:15:19.232Z,100234.56
2023-04-01T22:17:52.953Z,100247.69
2023-04-01T22:20:30.194Z,100252.94
2023-04-01T22:23:09.949Z,100252.94
2023-04-01T22:25:44.503Z,100251.94
2023-04-01T22:28:18.113Z,100267.69
2023-04-01T22:30:52.602Z,100264.97
2023-04-01T22:33:27.757Z,100273.72
2023-04-01T22:36:04.224Z,100277.16
2023-04-01T22:38:55.993Z,100277.13
2023-04-01T22:41:36.935Z,100284.97
2023-04-01T22:44:04.852Z,100287.63
2023-04-01T22:46:51.421Z,100294.59
2023-04-01T22:49:24.048Z,100284.94
2023-04-01T22:51:56.109Z,100295.44
2023-04-01T22:54:31.070Z,100305.91
2023-04-01T22:57:03.869Z,100308.53
2023-04-01T22:59:38.870Z,100312.03
2023-04-01T23:02:15.539Z,100314.59
2023-04-01T23:04:49.071Z,100322.50
2023-04-01T23:07:47.534Z,100326.84
2023-04-01T23:10:22.223Z,100329.44
2023-04-01T23:12:53.286Z,100329.38
2023-04-01T23:15:21.620Z,100333.72
2023-04-01T23:18:05.602Z,100347.72
2023-04-01T23:20:44.970Z,100354.66
2023-04-01T23:23:28.872Z,100358.09
2023-04-01T23:26:06.055Z,100358.94
2023-04-01T23:28:47.320Z,100371.19
2023-04-01T23:31:36.741Z,100371.16
2023-04-01T23:34:22.539Z,100378.19
2023-04-01T23:36:53.308Z,100383.38
2023-04-01T23:39:26.908Z,100380.66
2023-04-01T23:41:58.302Z,100392.91
2023-04-01T23:44:28.241Z,100390.19
2023-04-01T23:46:56.804Z,100402.31
2023-04-01T23:49:32.533Z,100396.97
2023-04-01T23:52:03.861Z,100403.00
2023-04-01T23:54:35.084Z,100399.41
2023-04-01T23:57:08.507Z,100407.25
2023-04-01T23:59:38.400Z,100420.38
